Deo Volente — PHFJ — position and weather

sailwx.info

Track history (hours):
 
Tides and Currents Weather Stations Pressure Air Temp Water Temp Dewpoint Dewpoint Depression Visibility Wind Speed Wind Dir Waves Ship Positions

Deo Volente

Last reported at 2015-Mar-03 00:33 UTC. Time now 2015-Mar-03 00:38 UTC.
Position N 39°50' E 003°09'.

Length 105 m; draft 5.2 m.

Type: Cargo ship. MMSI: 246518000.

Date/timePositionNaut miles runAvg speedWind from/ knotsBaromVisibWave heightAir tempDewpointWater temp
2015-Mar-03 00:33N 39°50' E 003°09'0 0.0
2015-Mar-02 23:33N 39°50' E 003°09'0 0.0
2015-Mar-02 22:33N 39°50' E 003°09'7 7.0
2015-Mar-02 21:33N 39°50' E 003°18'3315.1
2015-Mar-02 19:22N 39°43' E 003°60'19014.4
2015-Mar-02 06:11N 38°54' E 007°57'1314.9
2015-Mar-02 05:18N 38°50' E 008°13'1215.1
2015-Mar-02 04:32N 38°47' E 008°28'1515.3
2015-Mar-02 03:33N 38°46' E 008°47'1515.3
2015-Mar-02 02:33N 38°44' E 009°06'18114.8
2015-Mar-01 14:18N 38°28' E 012°57'1714.1
2015-Mar-01 13:03N 38°27' E 013°20'1014.1
2015-Mar-01 12:23N 38°26' E 013°32'8314.2
2015-Mar-01 06:32N 38°20' E 015°17'  
2015-Feb-21 02:16N 37°43' E 024°18'  
Track history (hours):
 
Tides and Currents Weather Stations Pressure Air Temp Water Temp Dewpoint Dewpoint Depression Visibility Wind Speed Wind Dir Waves Ship Positions

Deo Volente

Last reported at 2015-Mar-03 00:33 UTC. Time now 2015-Mar-03 00:38 UTC.
Position N 39°50' E 003°09'.

Length 105 m; draft 5.2 m.

Type: Cargo ship. MMSI: 246518000.

Date/timePositionNaut miles runAvg speedWind from/ knotsBaromVisibWave heightAir tempDewpointWater temp
2015-Mar-03 00:33N 39°50' E 003°09'0 0.0
2015-Mar-02 23:33N 39°50' E 003°09'0 0.0
2015-Mar-02 22:33N 39°50' E 003°09'7 7.0
2015-Mar-02 21:33N 39°50' E 003°18'3315.1
2015-Mar-02 19:22N 39°43' E 003°60'19014.4
2015-Mar-02 06:11N 38°54' E 007°57'1314.9
2015-Mar-02 05:18N 38°50' E 008°13'1215.1
2015-Mar-02 04:32N 38°47' E 008°28'1515.3
2015-Mar-02 03:33N 38°46' E 008°47'1515.3
2015-Mar-02 02:33N 38°44' E 009°06'18114.8
2015-Mar-01 14:18N 38°28' E 012°57'1714.1
2015-Mar-01 13:03N 38°27' E 013°20'1014.1
2015-Mar-01 12:23N 38°26' E 013°32'8314.2
2015-Mar-01 06:32N 38°20' E 015°17'  
2015-Feb-21 02:16N 37°43' E 024°18'  

Dump ship's entire track history